createdAt,value
2017-08-15T00:00:34.671Z,5.80
2017-08-15T00:03:02.930Z,7.60
2017-08-15T00:05:37.216Z,9.77
2017-08-15T00:08:11.424Z,7.60
2017-08-15T00:10:40.597Z,12.60
2017-08-15T00:13:14.927Z,5.53
2017-08-15T00:15:43.407Z,5.90
2017-08-15T00:18:11.888Z,4.27
2017-08-15T00:20:40.708Z,5.20
2017-08-15T00:23:09.000Z,8.63
2017-08-15T00:25:37.656Z,12.30
2017-08-15T00:28:11.932Z,11.13
2017-08-15T00:30:40.745Z,6.80
2017-08-15T00:33:09.088Z,6.60
2017-08-15T00:35:37.364Z,11.03
2017-08-15T00:38:05.668Z,10.40
2017-08-15T00:40:34.055Z,9.00
2017-08-15T00:43:02.304Z,6.30
2017-08-15T00:45:30.716Z,8.80
2017-08-15T00:47:58.976Z,5.90
2017-08-15T00:50:33.207Z,7.30
2017-08-15T00:53:07.550Z,6.43
2017-08-15T00:55:36.350Z,4.10
2017-08-15T00:58:04.656Z,5.53
2017-08-15T01:00:32.970Z,8.40
2017-08-15T01:03:01.321Z,5.97
2017-08-15T01:05:29.623Z,5.80
2017-08-15T01:07:58.263Z,5.93
2017-08-15T01:10:26.520Z,5.40
2017-08-15T01:12:54.910Z,14.43
2017-08-15T01:15:23.172Z,6.73
2017-08-15T01:17:51.681Z,11.90
2017-08-15T01:20:20.416Z,8.97
2017-08-15T01:22:48.717Z,15.53
2017-08-15T01:25:17.009Z,6.13
2017-08-15T01:27:47.646Z,32.97
2017-08-15T01:30:17.012Z,7.50
2017-08-15T01:32:47.976Z,8.50
2017-08-15T01:35:22.285Z,16.90
2017-08-15T01:37:56.486Z,13.53
2017-08-15T01:40:30.780Z,6.87
2017-08-15T01:43:05.004Z,8.63
2017-08-15T01:45:39.381Z,7.30
2017-08-15T01:48:13.531Z,9.17
2017-08-15T01:50:47.838Z,10.47
2017-08-15T01:53:22.112Z,7.77
2017-08-15T01:55:56.352Z,10.20
2017-08-15T01:58:30.446Z,7.53
2017-08-15T02:01:05.628Z,11.03
2017-08-15T02:03:39.735Z,6.40
2017-08-15T02:06:14.000Z,8.43
2017-08-15T02:08:48.157Z,5.77
2017-08-15T02:11:22.348Z,7.23
2017-08-15T02:13:56.453Z,8.27
2017-08-15T02:16:30.804Z,5.40
2017-08-15T02:19:04.904Z,4.87
2017-08-15T02:21:39.285Z,11.80
2017-08-15T02:24:13.565Z,6.40
2017-08-15T02:26:48.025Z,5.37
2017-08-15T02:29:22.179Z,6.13
2017-08-15T02:31:56.316Z,5.83
2017-08-15T02:34:30.569Z,6.50
2017-08-15T02:37:04.741Z,5.37
2017-08-15T02:39:38.845Z,5.73
2017-08-15T02:42:13.488Z,5.60
2017-08-15T02:44:47.635Z,7.03
2017-08-15T02:47:21.815Z,8.93
2017-08-15T02:49:55.931Z,9.63
2017-08-15T02:52:30.367Z,6.20
2017-08-15T02:55:04.472Z,8.50
2017-08-15T02:57:38.682Z,4.70
2017-08-15T03:00:13.005Z,5.83
2017-08-15T03:02:47.160Z,10.10
2017-08-15T03:05:21.358Z,7.37
2017-08-15T03:07:55.642Z,7.70
2017-08-15T03:10:29.950Z,11.83
2017-08-15T03:13:04.232Z,5.60
2017-08-15T03:15:38.336Z,8.50
2017-08-15T03:18:12.517Z,6.60
2017-08-15T03:20:46.663Z,5.80
2017-08-15T03:23:20.944Z,6.80
2017-08-15T03:25:55.103Z,7.73
2017-08-15T03:28:29.435Z,5.73
2017-08-15T03:31:03.965Z,6.03
2017-08-15T03:33:38.290Z,5.07
2017-08-15T03:36:12.608Z,5.13
2017-08-15T03:38:46.740Z,5.10
2017-08-15T03:41:20.870Z,7.40
2017-08-15T03:43:55.006Z,5.30
2017-08-15T03:46:29.233Z,5.20
2017-08-15T03:49:03.572Z,7.97
2017-08-15T03:51:37.984Z,8.23
2017-08-15T03:54:12.905Z,5.00
2017-08-15T03:56:47.044Z,15.20
2017-08-15T03:59:21.207Z,12.07
2017-08-15T04:01:55.353Z,4.33
2017-08-15T04:04:29.765Z,15.90
2017-08-15T04:07:03.940Z,17.07
2017-08-15T04:09:38.662Z,8.33
2017-08-15T04:12:12.866Z,6.90
2017-08-15T04:14:47.060Z,8.87
2017-08-15T04:17:21.225Z,16.90
2017-08-15T04:19:55.410Z,9.13
2017-08-15T04:22:29.550Z,5.20
2017-08-15T04:25:03.800Z,6.10
2017-08-15T04:27:38.015Z,5.70
2017-08-15T04:30:12.387Z,16.73
2017-08-15T04:32:46.974Z,9.23
2017-08-15T04:35:21.374Z,6.67
2017-08-15T04:37:55.628Z,8.20
2017-08-15T04:40:29.784Z,6.03
2017-08-15T04:43:04.073Z,4.67
2017-08-15T04:45:38.398Z,4.67
2017-08-15T04:48:12.532Z,4.23
2017-08-15T04:50:46.788Z,10.10
2017-08-15T04:53:22.161Z,10.50
2017-08-15T04:55:56.418Z,5.50
2017-08-15T04:58:30.560Z,5.50
2017-08-15T05:01:04.863Z,4.50
2017-08-15T05:03:39.009Z,4.60
2017-08-15T05:06:13.199Z,6.47
2017-08-15T05:08:47.329Z,9.60
2017-08-15T05:11:21.958Z,5.10
2017-08-15T05:13:56.100Z,5.00
2017-08-15T05:16:30.250Z,6.47
2017-08-15T05:19:04.368Z,7.57
2017-08-15T05:21:38.730Z,6.27
2017-08-15T05:24:12.828Z,5.83
2017-08-15T05:26:47.128Z,8.37
2017-08-15T05:29:21.270Z,8.37
2017-08-15T05:31:55.571Z,5.80
2017-08-15T05:34:29.667Z,4.33
2017-08-15T05:37:03.938Z,5.17
2017-08-15T05:39:38.171Z,7.80
2017-08-15T05:42:12.429Z,6.63
2017-08-15T05:44:46.737Z,4.90
2017-08-15T05:47:20.920Z,4.40
2017-08-15T05:49:56.167Z,3.97
2017-08-15T05:52:30.753Z,3.93
2017-08-15T05:55:05.018Z,6.60
2017-08-15T05:57:39.420Z,3.70
2017-08-15T06:00:14.293Z,4.67
2017-08-15T06:02:48.513Z,3.80
2017-08-15T06:05:22.917Z,8.73
2017-08-15T06:07:57.091Z,4.90
2017-08-15T06:10:31.332Z,3.83
2017-08-15T06:13:05.626Z,6.70
2017-08-15T06:15:39.913Z,5.70
2017-08-15T06:18:14.121Z,4.87
2017-08-15T06:20:48.244Z,10.60
2017-08-15T06:23:22.636Z,4.47
2017-08-15T06:25:57.814Z,5.40
2017-08-15T06:28:32.125Z,8.20
2017-08-15T06:31:06.273Z,4.23
2017-08-15T06:33:40.696Z,5.83
2017-08-15T06:36:14.963Z,5.33
2017-08-15T06:38:49.104Z,5.40
2017-08-15T06:41:23.260Z,5.50
2017-08-15T06:43:58.284Z,4.30
2017-08-15T06:46:32.591Z,4.00
2017-08-15T06:49:06.884Z,11.83
2017-08-15T06:51:41.099Z,4.07
2017-08-15T06:54:16.381Z,4.57
2017-08-15T06:56:50.510Z,4.80
2017-08-15T06:59:24.697Z,6.00
2017-08-15T07:01:58.862Z,4.20
2017-08-15T07:04:33.119Z,3.13
2017-08-15T07:07:07.288Z,7.27
2017-08-15T07:09:35.672Z,7.47
2017-08-15T07:12:04.217Z,4.97
2017-08-15T07:14:32.490Z,5.33
2017-08-15T07:17:00.925Z,10.17
2017-08-15T07:19:29.402Z,8.57
2017-08-15T07:21:58.687Z,6.90
2017-08-15T07:27:02.248Z,3.17
2017-08-15T07:29:31.309Z,9.37
2017-08-15T07:32:06.025Z,5.30
2017-08-15T07:34:40.596Z,3.10
2017-08-15T07:37:14.753Z,10.07
2017-08-15T07:39:49.967Z,4.10
2017-08-15T07:42:24.141Z,3.80
2017-08-15T07:44:58.321Z,3.83
2017-08-15T07:47:32.484Z,3.80
2017-08-15T07:50:07.076Z,5.47
2017-08-15T07:52:41.295Z,6.67
2017-08-15T07:55:15.515Z,4.60
2017-08-15T07:57:50.545Z,4.43
2017-08-15T08:00:24.728Z,2.53
2017-08-15T08:02:59.106Z,2.60
2017-08-15T08:05:33.181Z,6.20
2017-08-15T08:08:07.512Z,6.57
2017-08-15T08:10:41.647Z,4.10
2017-08-15T08:13:15.967Z,2.60
2017-08-15T08:15:50.144Z,8.43
2017-08-15T08:18:24.537Z,3.50
2017-08-15T08:20:58.896Z,3.80
2017-08-15T08:23:27.238Z,6.47
2017-08-15T08:25:55.949Z,3.87
2017-08-15T08:28:24.429Z,3.30
2017-08-15T08:30:52.720Z,3.03
2017-08-15T08:33:21.221Z,4.00
2017-08-15T08:35:49.571Z,6.67
2017-08-15T08:38:18.149Z,8.80
2017-08-15T08:40:46.680Z,2.70
2017-08-15T08:43:15.047Z,3.67
2017-08-15T08:45:43.493Z,2.77
2017-08-15T08:48:11.984Z,4.13
2017-08-15T08:50:40.361Z,3.43
2017-08-15T08:53:08.703Z,2.87
2017-08-15T08:55:36.984Z,4.20
2017-08-15T08:58:05.499Z,2.53
2017-08-15T09:00:34.023Z,4.63
2017-08-15T09:03:02.725Z,4.17
2017-08-15T09:05:31.205Z,4.23
2017-08-15T09:07:59.962Z,2.50
2017-08-15T09:10:28.273Z,2.73
2017-08-15T09:12:56.827Z,4.70
2017-08-15T09:15:25.282Z,3.03
2017-08-15T09:17:53.668Z,4.83
2017-08-15T09:20:22.216Z,2.50
2017-08-15T09:22:50.585Z,2.53
2017-08-15T09:25:19.112Z,3.07
2017-08-15T09:27:47.461Z,3.10
2017-08-15T09:30:15.720Z,8.30
2017-08-15T09:32:44.099Z,3.47
2017-08-15T09:35:12.388Z,3.10
2017-08-15T09:37:40.938Z,2.27
2017-08-15T09:40:09.219Z,2.63
2017-08-15T09:42:37.590Z,3.47
2017-08-15T09:45:05.828Z,2.57
2017-08-15T09:47:34.396Z,3.60
2017-08-15T09:50:02.931Z,2.93
2017-08-15T09:52:31.201Z,2.90
2017-08-15T09:54:59.785Z,2.43
2017-08-15T09:57:28.033Z,2.50
2017-08-15T09:59:56.468Z,2.93
2017-08-15T10:02:24.740Z,5.17
2017-08-15T10:04:53.257Z,2.33
2017-08-15T10:07:21.809Z,6.00
2017-08-15T10:09:50.493Z,3.87
2017-08-15T10:12:18.863Z,2.93
2017-08-15T10:14:47.117Z,2.70
2017-08-15T10:17:15.577Z,10.13
2017-08-15T10:19:44.047Z,3.27
2017-08-15T10:22:12.360Z,3.30
2017-08-15T10:24:40.736Z,3.10
2017-08-15T10:27:08.993Z,4.40
2017-08-15T10:29:37.349Z,2.50
2017-08-15T10:32:05.676Z,4.03
2017-08-15T10:34:34.237Z,2.30
2017-08-15T10:37:02.689Z,2.73
2017-08-15T10:39:31.332Z,2.80
2017-08-15T10:41:59.617Z,6.97
2017-08-15T10:44:28.295Z,4.73
2017-08-15T10:46:56.576Z,2.43
2017-08-15T10:49:24.821Z,2.33
2017-08-15T10:51:53.339Z,2.47
2017-08-15T10:54:21.962Z,2.13
2017-08-15T10:56:50.561Z,3.57
2017-08-15T10:59:18.837Z,8.60
2017-08-15T11:01:47.180Z,2.80
2017-08-15T11:04:15.450Z,3.60
2017-08-15T11:06:43.713Z,3.83
2017-08-15T11:09:12.255Z,2.60
2017-08-15T11:11:40.503Z,3.90
2017-08-15T11:14:08.739Z,3.17
2017-08-15T11:16:37.068Z,2.87
2017-08-15T11:19:05.431Z,2.53
2017-08-15T11:21:33.705Z,3.00
2017-08-15T11:24:02.068Z,3.97
2017-08-15T11:26:30.320Z,2.53
2017-08-15T11:28:58.591Z,7.90
2017-08-15T11:31:26.837Z,7.67
2017-08-15T11:33:55.395Z,2.60
2017-08-15T11:36:23.684Z,2.20
2017-08-15T11:38:52.292Z,2.47
2017-08-15T11:41:20.620Z,2.57
2017-08-15T11:43:49.044Z,11.30
2017-08-15T11:46:17.373Z,2.73
2017-08-15T11:48:45.800Z,1.87
2017-08-15T11:51:14.712Z,4.37
2017-08-15T11:53:43.050Z,3.93
2017-08-15T11:56:11.373Z,3.93
2017-08-15T11:58:39.855Z,4.77
2017-08-15T12:01:08.673Z,3.50
2017-08-15T12:03:37.092Z,5.50
2017-08-15T12:06:05.765Z,2.80
2017-08-15T12:08:34.012Z,1.90
2017-08-15T12:11:02.665Z,2.10
2017-08-15T12:13:31.225Z,4.17
2017-08-15T12:15:59.471Z,2.43
2017-08-15T12:18:27.741Z,5.43
2017-08-15T12:20:56.041Z,4.13
2017-08-15T12:23:24.423Z,2.77
2017-08-15T12:25:52.768Z,2.97
2017-08-15T12:28:22.075Z,5.40
2017-08-15T12:30:50.424Z,3.30
2017-08-15T12:33:18.921Z,4.10
2017-08-15T12:35:47.352Z,2.60
2017-08-15T12:38:15.743Z,4.33
2017-08-15T12:40:44.506Z,3.10
2017-08-15T12:43:12.908Z,4.57
2017-08-15T12:45:41.444Z,4.27
2017-08-15T12:48:09.950Z,2.63
2017-08-15T12:50:38.712Z,6.37
2017-08-15T12:53:07.091Z,3.57
2017-08-15T12:55:35.393Z,5.20
2017-08-15T12:58:03.890Z,4.40
2017-08-15T13:00:32.348Z,6.33
2017-08-15T13:03:00.724Z,3.60
2017-08-15T13:05:28.998Z,2.77
2017-08-15T13:07:57.288Z,2.93
2017-08-15T13:10:25.599Z,4.93
2017-08-15T13:12:54.584Z,7.23
2017-08-15T13:15:23.245Z,4.60
2017-08-15T13:17:51.890Z,7.67
2017-08-15T13:20:20.158Z,4.28
2017-08-15T13:22:48.486Z,2.92
2017-08-15T13:25:16.772Z,4.10
2017-08-15T13:27:45.123Z,4.25
2017-08-15T13:30:13.364Z,6.12
2017-08-15T13:32:41.671Z,9.33
2017-08-15T13:35:10.043Z,4.72
2017-08-15T13:37:38.860Z,3.00
2017-08-15T13:40:07.184Z,5.53
2017-08-15T13:42:35.814Z,3.80
2017-08-15T13:45:04.120Z,2.42
2017-08-15T13:47:32.547Z,2.85
2017-08-15T13:50:00.826Z,4.25
2017-08-15T13:52:29.114Z,3.62
2017-08-15T13:54:57.512Z,5.20
2017-08-15T13:57:26.211Z,4.20
2017-08-15T13:59:54.680Z,2.57
2017-08-15T14:02:23.144Z,4.57
2017-08-15T14:04:51.951Z,3.17
2017-08-15T14:07:20.422Z,2.37
2017-08-15T14:09:48.902Z,2.17
2017-08-15T14:12:17.445Z,3.60
2017-08-15T14:14:46.001Z,3.30
2017-08-15T14:17:14.649Z,3.50
2017-08-15T14:19:43.296Z,6.83
2017-08-15T14:22:12.091Z,2.90
2017-08-15T14:24:40.760Z,13.00
2017-08-15T14:27:09.045Z,2.47
2017-08-15T14:29:37.420Z,3.47
2017-08-15T14:32:06.076Z,3.37
2017-08-15T14:34:34.343Z,3.00
2017-08-15T14:37:02.680Z,5.20
2017-08-15T14:39:31.580Z,3.07
2017-08-15T14:41:59.925Z,3.87
2017-08-15T14:44:28.252Z,4.47
2017-08-15T14:46:56.956Z,4.93
2017-08-15T14:49:25.442Z,2.40
2017-08-15T14:51:54.124Z,3.20
2017-08-15T14:54:22.374Z,3.97
2017-08-15T14:56:51.259Z,8.10
2017-08-15T14:59:19.789Z,3.17
2017-08-15T15:01:48.297Z,3.13
2017-08-15T15:04:17.001Z,3.83
2017-08-15T15:06:45.268Z,3.37
2017-08-15T15:09:13.659Z,10.43
2017-08-15T15:11:42.019Z,4.57
2017-08-15T15:14:10.679Z,2.87
2017-08-15T15:16:38.944Z,2.73
2017-08-15T15:19:07.244Z,9.40
2017-08-15T15:21:35.597Z,4.30
2017-08-15T15:24:04.172Z,4.90
2017-08-15T15:26:32.832Z,2.97
2017-08-15T15:29:01.277Z,2.60
2017-08-15T15:31:29.536Z,4.50
2017-08-15T15:33:57.897Z,4.53
2017-08-15T15:36:26.404Z,3.13
2017-08-15T15:38:54.657Z,2.72
2017-08-15T15:41:22.973Z,3.90
2017-08-15T15:43:51.271Z,5.07
2017-08-15T15:46:19.849Z,3.93
2017-08-15T15:48:48.327Z,9.68
2017-08-15T15:51:16.612Z,8.15
2017-08-15T15:53:45.507Z,3.72
2017-08-15T15:56:13.841Z,3.35
2017-08-15T15:58:42.275Z,6.70
2017-08-15T16:01:10.823Z,8.23
2017-08-15T16:03:39.444Z,3.20
2017-08-15T16:06:07.758Z,3.70
2017-08-15T16:08:36.191Z,6.77
2017-08-15T16:11:06.513Z,5.40
2017-08-15T16:13:34.752Z,8.57
2017-08-15T16:16:03.624Z,13.27
2017-08-15T16:18:32.321Z,3.10
2017-08-15T16:21:00.910Z,3.80
2017-08-15T16:23:29.403Z,3.20
2017-08-15T16:25:57.710Z,3.10
2017-08-15T16:28:26.077Z,6.47
2017-08-15T16:30:54.684Z,4.57
2017-08-15T16:33:22.925Z,2.47
2017-08-15T16:35:51.683Z,4.70
2017-08-15T16:38:20.340Z,3.93
2017-08-15T16:40:48.589Z,4.13
2017-08-15T16:43:16.928Z,4.90
2017-08-15T16:45:45.360Z,4.97
2017-08-15T16:48:13.887Z,6.30
2017-08-15T16:50:42.156Z,2.70
2017-08-15T16:53:10.639Z,7.40
2017-08-15T16:55:39.360Z,6.60
2017-08-15T16:58:07.649Z,3.60
2017-08-15T17:00:35.887Z,3.83
2017-08-15T17:03:04.356Z,4.20
2017-08-15T17:05:32.645Z,9.50
2017-08-15T17:08:01.269Z,4.73
2017-08-15T17:10:29.908Z,7.00
2017-08-15T17:12:58.156Z,5.73
2017-08-15T17:15:28.377Z,8.63
2017-08-15T17:17:56.919Z,3.97
2017-08-15T17:20:25.568Z,6.50
2017-08-15T17:22:54.204Z,5.53
2017-08-15T17:25:22.459Z,4.30
2017-08-15T17:27:51.273Z,5.30
2017-08-15T17:30:19.553Z,5.60
2017-08-15T17:32:47.842Z,8.43
2017-08-15T17:35:16.140Z,4.10
2017-08-15T17:37:44.533Z,4.13
2017-08-15T17:40:13.111Z,6.40
2017-08-15T17:42:41.353Z,5.73
2017-08-15T17:45:09.844Z,5.47
2017-08-15T17:47:57.803Z,6.53
2017-08-15T17:50:26.097Z,5.70
2017-08-15T17:52:54.724Z,3.57
2017-08-15T17:55:23.215Z,8.07
2017-08-15T17:57:51.838Z,3.67
2017-08-15T18:00:21.393Z,4.07
2017-08-15T18:02:49.787Z,4.23
2017-08-15T18:05:18.536Z,4.00
2017-08-15T18:07:47.079Z,8.77
2017-08-15T18:10:15.749Z,7.53
2017-08-15T18:12:44.425Z,14.17
2017-08-15T18:15:13.032Z,6.10
2017-08-15T18:17:41.355Z,3.80
2017-08-15T18:20:09.684Z,6.10
2017-08-15T18:22:37.990Z,8.23
2017-08-15T18:25:06.223Z,17.47
2017-08-15T18:27:35.392Z,10.37
2017-08-15T18:30:03.644Z,9.87
2017-08-15T18:32:31.889Z,8.13
2017-08-15T18:35:00.294Z,12.20
2017-08-15T18:37:28.574Z,5.10
2017-08-15T18:39:56.873Z,9.77
2017-08-15T18:42:25.351Z,5.70
2017-08-15T18:44:53.600Z,9.47
2017-08-15T18:47:22.113Z,9.77
2017-08-15T18:49:50.461Z,11.93
2017-08-15T18:52:18.783Z,10.37
2017-08-15T18:54:47.038Z,7.53
2017-08-15T18:57:15.300Z,21.80
2017-08-15T18:59:43.839Z,15.53
2017-08-15T19:02:12.481Z,11.13
2017-08-15T19:04:40.899Z,7.97
2017-08-15T19:07:09.541Z,12.20
2017-08-15T19:09:37.892Z,14.27
2017-08-15T19:12:06.152Z,10.67
2017-08-15T19:14:34.804Z,13.57
2017-08-15T19:17:03.099Z,9.50
2017-08-15T19:19:31.423Z,14.03
2017-08-15T19:21:59.721Z,9.77
2017-08-15T19:24:28.002Z,11.43
2017-08-15T19:26:56.248Z,14.43
2017-08-15T19:29:24.526Z,13.93
2017-08-15T19:31:52.802Z,21.83
2017-08-15T19:34:21.120Z,18.90
2017-08-15T19:36:49.371Z,8.93
2017-08-15T19:39:17.621Z,16.23
2017-08-15T19:41:45.928Z,14.37
2017-08-15T19:44:14.351Z,17.60
2017-08-15T19:46:42.642Z,17.27
2017-08-15T19:49:11.248Z,13.83
2017-08-15T19:51:39.485Z,9.10
2017-08-15T19:54:07.734Z,11.47
2017-08-15T19:56:36.037Z,9.77
2017-08-15T19:59:04.298Z,12.90
2017-08-15T20:01:32.577Z,14.00
2017-08-15T20:04:00.865Z,18.27
2017-08-15T20:06:29.117Z,20.10
2017-08-15T20:08:57.404Z,15.50
2017-08-15T20:11:25.716Z,16.50
2017-08-15T20:13:54.010Z,12.40
2017-08-15T20:16:22.261Z,15.07
2017-08-15T20:18:50.543Z,12.73
2017-08-15T20:21:18.801Z,8.63
2017-08-15T20:23:47.048Z,19.00
2017-08-15T20:26:15.334Z,17.27
2017-08-15T20:28:43.584Z,20.30
2017-08-15T20:31:11.827Z,14.10
2017-08-15T20:33:40.146Z,11.73
2017-08-15T20:36:08.423Z,15.07
2017-08-15T20:38:36.703Z,24.97
2017-08-15T20:41:04.981Z,14.30
2017-08-15T20:43:33.288Z,15.80
2017-08-15T20:46:01.572Z,12.47
2017-08-15T20:48:29.883Z,17.93
2017-08-15T20:50:58.246Z,13.03
2017-08-15T20:53:26.512Z,11.53
2017-08-15T20:56:00.727Z,17.40
2017-08-15T20:58:34.864Z,10.40
2017-08-15T21:01:09.202Z,13.80
2017-08-15T21:03:43.521Z,20.67
2017-08-15T21:06:17.772Z,20.13
2017-08-15T21:08:51.996Z,20.33
2017-08-15T21:11:26.228Z,11.70
2017-08-15T21:14:00.672Z,22.73
2017-08-15T21:16:34.782Z,12.90
2017-08-15T21:19:09.195Z,9.30
2017-08-15T21:21:43.561Z,17.97
2017-08-15T21:24:18.147Z,16.90
2017-08-15T21:26:52.252Z,15.90
2017-08-15T21:29:26.519Z,15.53
2017-08-15T21:32:00.847Z,10.93
2017-08-15T21:34:35.047Z,10.70
2017-08-15T21:37:03.861Z,11.70
2017-08-15T21:39:32.251Z,22.37
2017-08-15T21:42:00.586Z,16.97
2017-08-15T21:44:29.538Z,16.97
2017-08-15T21:46:57.860Z,22.50
2017-08-15T21:49:26.504Z,16.67
2017-08-15T21:51:54.837Z,15.90
2017-08-15T21:54:23.129Z,23.30
2017-08-15T21:56:51.361Z,8.93
2017-08-15T21:59:19.636Z,14.93
2017-08-15T22:01:53.495Z,11.00
2017-08-15T22:04:22.276Z,13.13
2017-08-15T22:06:50.541Z,20.50
2017-08-15T22:09:18.784Z,12.93
2017-08-15T22:11:47.048Z,9.30
2017-08-15T22:14:16.284Z,17.77
2017-08-15T22:16:44.592Z,8.30
2017-08-15T22:19:12.851Z,9.97
2017-08-15T22:21:41.095Z,14.00
2017-08-15T22:24:09.389Z,15.10
2017-08-15T22:26:37.649Z,10.00
2017-08-15T22:29:05.938Z,13.03
2017-08-15T22:31:34.544Z,13.53
2017-08-15T22:34:02.885Z,10.30
2017-08-15T22:36:31.306Z,10.40
2017-08-15T22:38:59.795Z,10.97
2017-08-15T22:41:28.296Z,12.20
2017-08-15T22:43:56.566Z,9.47
2017-08-15T22:46:24.803Z,11.17
2017-08-15T22:48:53.117Z,12.90
2017-08-15T22:51:21.372Z,10.43
2017-08-15T22:53:49.733Z,18.63
2017-08-15T22:56:18.044Z,14.13
2017-08-15T22:58:46.336Z,16.13
2017-08-15T23:01:14.660Z,13.20
2017-08-15T23:03:43.212Z,18.23
2017-08-15T23:06:11.513Z,11.17
2017-08-15T23:08:39.761Z,10.27
2017-08-15T23:11:08.005Z,12.10
2017-08-15T23:13:36.275Z,12.03
2017-08-15T23:16:04.523Z,14.70
2017-08-15T23:18:33.136Z,17.40
2017-08-15T23:21:01.420Z,17.97
2017-08-15T23:23:29.676Z,14.80
2017-08-15T23:25:57.980Z,19.20
2017-08-15T23:28:26.224Z,25.90
2017-08-15T23:30:54.513Z,13.93
2017-08-15T23:33:22.819Z,23.20
2017-08-15T23:35:51.175Z,42.80
2017-08-15T23:38:19.461Z,33.03
2017-08-15T23:40:47.716Z,32.30
2017-08-15T23:43:16.096Z,24.20
2017-08-15T23:45:44.467Z,37.37
2017-08-15T23:48:12.736Z,20.60
2017-08-15T23:50:41.188Z,23.57
2017-08-15T23:53:09.499Z,17.00
2017-08-15T23:55:38.267Z,16.40
2017-08-15T23:58:06.532Z,23.43
